Time;durP1;ratioP1;P1;durP2;ratioP2;P2;SDS_P1;SDS_P2;PMS_P1;PMS_P2;Temp;Humidity;BMP_temperature;BMP_pressure;BME280_temperature;BME280_humidity;BME280_pressure;Samples;Min_cycle;Max_cycle;Signal;HPM_P1;HPM_P2
2021/08/21 00:02:01;;;;;;;;;3.75;3.75;;;;;23.04;46.77;101196.06;5057651;28;45263;-49
2021/08/21 00:04:27;;;;;;;;;4.00;3.50;;;;;23.05;46.81;101191.63;5057629;28;45245;-49
2021/08/21 00:06:52;;;;;;;;;6.50;3.50;;;;;23.05;46.86;101197.78;5058041;28;45618;-53
2021/08/21 00:09:18;;;;;;;;;3.00;3.00;;;;;23.03;46.76;101194.34;5057303;28;45352;-51
2021/08/21 00:11:43;;;;;;;;;4.00;4.00;;;;;23.02;46.85;101192.66;5057314;28;45239;-50
2021/08/21 00:14:08;;;;;;;;;3.00;3.00;;;;;23.01;46.77;101193.59;5057396;28;45253;-48
2021/08/21 00:16:34;;;;;;;;;4.00;4.00;;;;;23.00;46.70;101195.41;5057591;28;45204;-48
2021/08/21 00:19:00;;;;;;;;;4.75;3.75;;;;;22.99;46.77;101188.41;5057337;28;46287;-48
2021/08/21 00:21:25;;;;;;;;;3.50;3.25;;;;;23.00;46.79;101189.25;5057322;28;45406;-49
2021/08/21 00:23:51;;;;;;;;;4.00;4.00;;;;;22.99;46.79;101182.25;5057581;28;45514;-47
2021/08/21 00:26:16;;;;;;;;;4.50;3.50;;;;;22.98;46.81;101183.22;5057489;28;45677;-49
2021/08/21 00:28:42;;;;;;;;;5.00;4.00;;;;;22.95;46.80;101184.25;5056938;28;45473;-47
2021/08/21 00:31:09;;;;;;;;;5.00;4.75;;;;;22.96;47.10;101169.25;5056913;28;45284;-49
2021/08/21 00:33:34;;;;;;;;;6.00;5.75;;;;;22.94;46.92;101168.50;5057254;28;45973;-49
2021/08/21 00:36:00;;;;;;;;;3.25;3.25;;;;;22.95;47.21;101178.97;5057341;28;45395;-50
2021/08/21 00:38:25;;;;;;;;;5.50;3.00;;;;;22.94;46.97;101171.13;5057241;28;46202;-49
2021/08/21 00:40:51;;;;;;;;;5.00;3.75;;;;;22.94;46.93;101173.78;5057469;28;45281;-48
2021/08/21 00:43:17;;;;;;;;;4.50;4.00;;;;;22.94;47.03;101171.13;5056792;28;45408;-47
2021/08/21 00:45:43;;;;;;;;;4.50;4.50;;;;;22.93;46.77;101166.78;5057131;28;45221;-47
2021/08/21 00:48:08;;;;;;;;;4.50;4.25;;;;;22.93;47.23;101154.41;5056716;28;45489;-47
2021/08/21 00:50:34;;;;;;;;;4.75;4.75;;;;;22.92;46.91;101167.72;5056588;28;45252;-46
2021/08/21 00:53:00;;;;;;;;;4.50;4.50;;;;;22.92;47.03;101160.66;5056759;28;45285;-48
2021/08/21 00:55:25;;;;;;;;;4.00;4.00;;;;;22.91;46.80;101164.25;5056484;28;45608;-49
2021/08/21 00:57:51;;;;;;;;;6.00;4.25;;;;;22.89;46.93;101163.47;5056459;28;45621;-48
2021/08/21 01:00:16;;;;;;;;;5.00;5.00;;;;;22.88;47.16;101168.84;5056482;28;45364;-47
2021/08/21 01:02:41;;;;;;;;;4.00;3.75;;;;;22.88;46.93;101166.19;5038597;28;45470;-48
2021/08/21 01:05:08;;;;;;;;;5.00;5.00;;;;;22.85;47.09;101154.03;5056849;28;45720;-47
2021/08/21 01:07:35;;;;;;;;;4.00;4.00;;;;;22.87;47.02;101162.72;5056294;28;46603;-47
2021/08/21 01:10:07;;;;;;;;;5.50;4.25;;;;;22.85;46.99;101159.31;5056401;28;45398;-47
2021/08/21 01:12:34;;;;;;;;;5.50;5.50;;;;;22.82;47.00;101151.59;5056600;28;45429;-48
2021/08/21 01:14:59;;;;;;;;;5.00;5.00;;;;;22.84;47.06;101153.19;5056710;28;45526;-48
2021/08/21 01:17:26;;;;;;;;;4.75;4.75;;;;;22.84;47.13;101145.25;5056590;28;45492;-51
2021/08/21 01:19:51;;;;;;;;;3.00;3.00;;;;;22.84;47.16;101145.25;5056370;28;45639;-51
2021/08/21 01:22:20;;;;;;;;;5.50;5.00;;;;;22.87;47.21;101152.16;5056326;28;45468;-49
2021/08/21 01:24:50;;;;;;;;;4.50;3.75;;;;;22.85;47.11;101160.19;5056592;28;45520;-47
2021/08/21 01:27:24;;;;;;;;;4.50;4.50;;;;;22.83;47.16;101154.13;5056240;28;45692;-48
2021/08/21 01:29:50;;;;;;;;;6.00;4.00;;;;;22.82;47.04;101143.66;5056257;28;45285;-49
2021/08/21 01:32:17;;;;;;;;;5.00;5.00;;;;;22.80;47.07;101146.38;5056181;28;45169;-49
2021/08/21 01:34:43;;;;;;;;;5.25;5.25;;;;;22.79;47.25;101144.66;5056477;28;45522;-47
2021/08/21 01:37:09;;;;;;;;;6.75;4.00;;;;;22.76;47.16;101147.53;5056307;28;46713;-48
2021/08/21 01:39:34;;;;;;;;;6.00;4.50;;;;;22.75;47.29;101144.94;5056101;28;45225;-51
2021/08/21 01:42:00;;;;;;;;;4.50;4.50;;;;;22.74;47.30;101145.88;5056099;28;45389;-49
2021/08/21 01:44:26;;;;;;;;;5.25;4.00;;;;;22.74;47.16;101146.75;5038544;28;45538;-48
2021/08/21 01:46:52;;;;;;;;;4.50;4.50;;;;;22.74;47.37;101141.47;5055901;28;46737;-50
2021/08/21 01:49:19;;;;;;;;;4.75;4.00;;;;;22.72;47.51;101138.06;5056102;28;45372;-49
2021/08/21 01:51:47;;;;;;;;;6.50;5.00;;;;;22.72;47.30;101142.47;5056113;28;45447;-50
2021/08/21 01:54:23;;;;;;;;;4.00;4.00;;;;;22.70;47.43;101140.81;5056234;28;45430;-53
2021/08/21 01:56:54;;;;;;;;;3.00;3.00;;;;;22.71;47.50;101136.38;5055955;28;45599;-51
2021/08/21 01:59:25;;;;;;;;;6.75;5.00;;;;;22.70;47.16;101134.66;5055784;28;45826;-52
2021/08/21 02:01:52;;;;;;;;;5.75;5.00;;;;;22.70;47.29;101129.38;5056030;28;45305;-52
2021/08/21 02:04:18;;;;;;;;;3.75;3.50;;;;;22.70;47.25;101134.66;5055980;28;45437;-53
2021/08/21 02:06:43;;;;;;;;;5.50;4.50;;;;;22.68;47.34;101128.63;5057934;28;46432;-55
2021/08/21 02:09:11;;;;;;;;;5.00;5.00;;;;;22.68;47.35;101137.41;5059208;28;45256;-52
2021/08/21 02:11:37;;;;;;;;;6.25;5.50;;;;;22.67;47.44;101127.78;5059329;28;45340;-50
2021/08/21 02:14:02;;;;;;;;;4.00;4.00;;;;;22.67;47.14;101124.28;5059356;28;45422;-48
2021/08/21 02:16:27;;;;;;;;;7.75;5.50;;;;;22.68;47.29;101123.34;5059340;28;45520;-53
2021/08/21 02:18:53;;;;;;;;;6.75;4.75;;;;;22.66;47.33;101122.56;5059044;28;47154;-51
2021/08/21 02:21:19;;;;;;;;;4.00;4.00;;;;;22.66;47.47;101117.28;5059154;28;45423;-53
2021/08/21 02:23:46;;;;;;;;;4.50;4.50;;;;;22.68;47.36;101104.84;5059437;28;45237;-53
2021/08/21 02:26:12;;;;;;;;;6.25;5.75;;;;;22.70;47.21;101114.38;5059008;28;45497;-52
2021/08/21 02:28:38;;;;;;;;;6.50;5.50;;;;;22.72;47.26;101121.34;5058889;28;45743;-50
2021/08/21 02:31:03;;;;;;;;;4.50;4.50;;;;;22.71;47.03;101128.44;5059087;28;45296;-53
2021/08/21 02:33:29;;;;;;;;;6.00;4.75;;;;;22.71;47.19;101125.78;5059500;28;45292;-54
2021/08/21 02:35:54;;;;;;;;;5.00;5.00;;;;;22.70;47.21;101124.97;5058768;28;45619;-51
2021/08/21 02:38:22;;;;;;;;;5.50;5.50;;;;;22.72;47.39;101121.34;5058856;28;45410;-51
2021/08/21 02:40:47;;;;;;;;;5.75;5.00;;;;;22.73;47.18;101117.75;5058879;28;45178;-51
2021/08/21 02:43:13;;;;;;;;;5.00;5.00;;;;;22.72;47.33;101122.22;5058996;28;45326;-50
2021/08/21 02:45:38;;;;;;;;;5.75;4.75;;;;;22.72;47.33;101111.66;5058766;28;46416;-54
2021/08/21 02:48:04;;;;;;;;;6.75;6.75;;;;;22.73;47.04;101113.34;5058748;28;45281;-53
2021/08/21 02:50:30;;;;;;;;;5.50;5.00;;;;;22.74;47.33;101112.41;5059096;28;45498;-51
2021/08/21 02:52:55;;;;;;;;;6.00;6.00;;;;;22.75;47.27;101105.31;5058921;28;45509;-52
2021/08/21 02:55:20;;;;;;;;;5.50;5.00;;;;;22.77;47.17;101112.19;5058334;28;49010;-53
2021/08/21 02:57:46;;;;;;;;;3.50;3.50;;;;;22.78;47.46;101105.97;5058426;28;45390;-51
2021/08/21 03:00:11;;;;;;;;;8.00;5.25;;;;;22.79;47.38;101107.69;5058484;28;45430;-50
2021/08/21 03:02:37;;;;;;;;;5.00;5.00;;;;;22.78;47.33;101105.13;5040639;28;45607;-50
2021/08/21 03:05:04;;;;;;;;;5.00;5.00;;;;;22.74;47.21;101104.47;5058728;28;46261;-48
2021/08/21 03:07:30;;;;;;;;;6.00;5.00;;;;;22.72;47.41;101101.06;5058599;28;45726;-49
2021/08/21 03:09:55;;;;;;;;;6.25;5.50;;;;;22.74;47.30;101107.13;5058592;28;45545;-54
2021/08/21 03:12:21;;;;;;;;;4.50;4.50;;;;;22.75;47.24;101111.47;5058534;28;45355;-53
2021/08/21 03:14:46;;;;;;;;;5.75;5.75;;;;;22.75;47.30;101103.53;5056821;28;47129;-52
2021/08/21 03:17:11;;;;;;;;;5.00;5.00;;;;;22.75;47.36;101106.19;5057486;28;45233;-52
2021/08/21 03:19:37;;;;;;;;;7.25;5.75;;;;;22.76;47.37;101105.25;5040259;28;45203;-49
2021/08/21 03:22:03;;;;;;;;;5.75;5.75;;;;;22.73;47.23;101097.50;5058868;28;45522;-48
2021/08/21 03:24:28;;;;;;;;;6.50;5.50;;;;;22.75;47.30;101110.59;5058151;28;46544;-51
2021/08/21 03:26:54;;;;;;;;;7.50;6.25;;;;;22.73;47.51;101102.78;5058155;28;45217;-52
2021/08/21 03:29:19;;;;;;;;;6.00;5.00;;;;;22.73;46.89;101101.91;5058140;28;45856;-50
2021/08/21 03:31:44;;;;;;;;;7.00;7.00;;;;;22.70;47.57;101095.91;5058329;28;45682;-50
2021/08/21 03:34:10;;;;;;;;;8.00;7.00;;;;;22.67;47.18;101084.63;5057772;28;46338;-48
2021/08/21 03:36:35;;;;;;;;;5.75;5.75;;;;;22.68;47.50;101089.84;5057918;28;45353;-46
2021/08/21 03:39:01;;;;;;;;;5.00;5.00;;;;;22.69;47.52;101090.69;5040272;28;45441;-50
2021/08/21 03:41:26;;;;;;;;;6.50;6.50;;;;;22.65;47.60;101095.31;5058124;28;45613;-50
2021/08/21 03:43:51;;;;;;;;;7.50;6.25;;;;;22.64;47.69;101092.78;5057733;28;45454;-53
2021/08/21 03:46:17;;;;;;;;;7.25;7.25;;;;;22.63;47.51;101093.72;5057800;28;45375;-53
2021/08/21 03:48:43;;;;;;;;;5.00;3.75;;;;;22.61;47.73;101085.03;5057851;28;45429;-50
2021/08/21 03:51:08;;;;;;;;;6.00;6.00;;;;;22.61;47.72;101085.88;5057943;28;45426;-51
2021/08/21 03:53:33;;;;;;;;;6.25;5.50;;;;;22.60;47.69;101080.69;5057895;28;46443;-52
2021/08/21 03:55:59;;;;;;;;;5.25;5.25;;;;;22.55;47.61;101087.06;5057619;28;45486;-51
2021/08/21 03:58:24;;;;;;;;;11.00;8.75;;;;;22.54;47.76;101082.72;5057382;28;45441;-51
2021/08/21 04:00:49;;;;;;;;;9.00;7.00;;;;;22.50;47.70;101081.25;5057848;28;45443;-52
2021/08/21 04:03:15;;;;;;;;;8.00;7.50;;;;;22.49;47.83;101084.81;5057360;28;45451;-50
2021/08/21 04:05:41;;;;;;;;;9.25;5.25;;;;;22.48;47.90;101085.75;5057492;28;45382;-52
2021/08/21 04:08:07;;;;;;;;;3.25;3.25;;;;;22.47;47.79;101075.28;5057599;28;45366;-50
2021/08/21 04:10:32;;;;;;;;;9.75;7.50;;;;;22.46;48.07;101079.72;5057933;28;45541;-50
2021/08/21 04:12:57;;;;;;;;;4.25;4.00;;;;;22.45;48.01;101078.00;5057334;28;46503;-52
2021/08/21 04:15:23;;;;;;;;;6.00;6.00;;;;;22.44;47.96;101065.75;5057382;28;45274;-51
2021/08/21 04:17:48;;;;;;;;;6.00;4.75;;;;;22.44;48.04;101065.75;5057492;28;45261;-54
2021/08/21 04:20:14;;;;;;;;;5.50;5.50;;;;;22.44;47.69;101064.91;5057571;28;45559;-48
2021/08/21 04:22:39;;;;;;;;;6.00;6.00;;;;;22.43;47.74;101060.56;5056961;28;46668;-52
2021/08/21 04:25:05;;;;;;;;;6.50;6.50;;;;;22.43;48.05;101061.44;5057383;28;45282;-50
2021/08/21 04:27:31;;;;;;;;;7.00;5.00;;;;;22.41;48.07;101063.31;5057144;28;45355;-50
2021/08/21 04:29:56;;;;;;;;;6.50;6.50;;;;;22.42;48.14;101062.38;5056151;28;45566;-48
2021/08/21 04:32:22;;;;;;;;;7.75;6.25;;;;;22.39;48.29;101067.78;5056794;28;48064;-50
2021/08/21 04:34:47;;;;;;;;;7.50;6.75;;;;;22.37;48.17;101053.81;5057031;28;45826;-52
2021/08/21 04:37:13;;;;;;;;;7.00;7.00;;;;;22.35;48.38;101051.28;5057191;28;45389;-53
2021/08/21 04:39:38;;;;;;;;;3.25;3.25;;;;;22.35;48.33;101068.91;5057245;28;45617;-48
2021/08/21 04:42:03;;;;;;;;;7.75;6.00;;;;;22.38;48.37;101060.81;5057059;28;46323;-53
2021/08/21 04:44:29;;;;;;;;;6.00;6.00;;;;;22.43;48.31;101064.06;5038802;28;45413;-50
2021/08/21 04:46:55;;;;;;;;;7.25;6.75;;;;;22.50;48.06;101059.25;5056950;28;45382;-51
2021/08/21 04:49:21;;;;;;;;;5.75;5.50;;;;;22.54;48.19;101063.41;5038966;28;45362;-49
2021/08/21 04:51:46;;;;;;;;;6.00;6.00;;;;;22.60;48.04;101067.47;5056172;28;45346;-50
2021/08/21 04:54:11;;;;;;;;;8.25;5.75;;;;;22.64;48.19;101061.06;5056612;28;45358;-49
2021/08/21 04:56:37;;;;;;;;;7.00;6.25;;;;;22.67;48.03;101072.28;5057061;28;45258;-46
2021/08/21 04:59:02;;;;;;;;;7.00;5.50;;;;;22.70;47.96;101061.56;5056876;28;45192;-50
2021/08/21 05:01:27;;;;;;;;;6.25;6.25;;;;;22.75;48.00;101066.56;5056651;28;45501;-49
2021/08/21 05:03:53;;;;;;;;;6.00;5.00;;;;;22.77;47.80;101067.28;5056560;28;45384;-53
2021/08/21 05:06:18;;;;;;;;;6.25;6.25;;;;;22.80;47.83;101060.97;5056849;28;45268;-46
2021/08/21 05:08:44;;;;;;;;;6.75;5.75;;;;;22.82;47.36;101072.31;5056945;28;45410;-51
2021/08/21 05:11:10;;;;;;;;;5.75;5.75;;;;;22.83;47.64;101074.84;5056636;28;45429;-50
2021/08/21 05:13:36;;;;;;;;;6.25;5.25;;;;;22.88;47.65;101074.56;5056887;28;45441;-52
2021/08/21 05:16:01;;;;;;;;;6.00;6.00;;;;;22.88;47.71;101071.06;5056545;28;45701;-51
2021/08/21 05:18:32;;;;;;;;;5.50;5.50;;;;;22.91;47.50;101076.16;5056743;28;45354;-48
2021/08/21 05:21:05;;;;;;;;;6.00;6.00;;;;;22.93;47.50;101071.63;5056262;28;46625;-49
2021/08/21 05:23:33;;;;;;;;;5.75;5.75;;;;;22.95;47.59;101075.03;5056483;28;45342;-52
2021/08/21 05:25:58;;;;;;;;;6.00;6.00;;;;;22.96;47.50;101068.81;5056467;28;45365;-48
2021/08/21 05:28:23;;;;;;;;;6.75;5.00;;;;;22.99;47.40;101071.25;5055291;28;45312;-47
2021/08/21 05:30:49;;;;;;;;;5.25;5.25;;;;;22.99;47.38;101072.09;5056207;28;46512;-49
2021/08/21 05:33:16;;;;;;;;;7.00;6.00;;;;;23.01;47.41;101079.94;5056199;28;45297;-48
2021/08/21 05:35:42;;;;;;;;;5.00;5.00;;;;;23.03;47.38;101080.69;5054974;28;45402;-51
2021/08/21 05:38:08;;;;;;;;;4.50;4.00;;;;;23.04;47.50;101079.75;5056800;28;45366;-47
2021/08/21 05:40:35;;;;;;;;;4.75;4.25;;;;;23.04;47.21;101090.31;5056531;28;45442;-52
2021/08/21 05:43:00;;;;;;;;;7.25;6.25;;;;;23.07;47.46;101089.28;5059696;28;45312;-50
2021/08/21 05:45:26;;;;;;;;;4.75;4.75;;;;;23.07;47.53;101090.13;5059774;28;45700;-48
2021/08/21 05:47:52;;;;;;;;;5.00;3.00;;;;;23.09;47.29;101087.38;5059926;28;45221;-47
2021/08/21 05:50:19;;;;;;;;;7.50;7.25;;;;;23.10;47.29;101091.72;5041430;28;48503;-48
2021/08/21 05:52:45;;;;;;;;;6.25;5.25;;;;;23.11;47.30;101090.78;5041628;28;45249;-46
2021/08/21 05:55:11;;;;;;;;;6.00;6.00;;;;;23.10;47.52;101089.09;5060007;28;45415;-52
2021/08/21 05:57:37;;;;;;;;;5.00;5.00;;;;;23.10;47.61;101092.56;5059847;28;45331;-48
2021/08/21 06:00:06;;;;;;;;;5.75;5.25;;;;;23.09;47.60;101093.53;5041109;28;48120;-49
2021/08/21 06:02:32;;;;;;;;;6.25;6.25;;;;;23.09;47.64;101096.19;5059424;28;45755;-46
2021/08/21 06:04:57;;;;;;;;;6.00;6.00;;;;;23.05;47.87;101097.31;5059454;28;45753;-46
2021/08/21 06:07:23;;;;;;;;;7.00;6.00;;;;;23.06;47.59;101092.84;5059435;28;45213;-50
2021/08/21 06:09:48;;;;;;;;;7.00;5.75;;;;;23.06;48.00;101096.38;5059149;28;46438;-49
2021/08/21 06:12:14;;;;;;;;;8.50;6.00;;;;;23.05;47.89;101092.03;5059241;28;45343;-49
2021/08/21 06:14:40;;;;;;;;;7.75;6.25;;;;;23.05;47.94;101097.31;5059794;28;45730;-48
2021/08/21 06:17:07;;;;;;;;;7.75;6.25;;;;;23.05;47.81;101092.03;5059482;28;45498;-48
2021/08/21 06:19:32;;;;;;;;;6.50;6.50;;;;;22.99;47.85;101087.09;5059008;28;45376;-51
2021/08/21 06:21:58;;;;;;;;;8.75;7.75;;;;;22.89;47.74;101085.97;5059047;28;45348;-49
2021/08/21 06:24:23;;;;;;;;;8.50;7.00;;;;;22.77;48.01;101088.41;5059164;28;45454;-47
2021/08/21 06:26:48;;;;;;;;;8.25;8.25;;;;;22.69;48.06;101095.97;5059326;28;45382;-46
2021/08/21 06:29:14;;;;;;;;;9.00;8.00;;;;;22.62;48.22;101092.00;5058930;28;45411;-47
2021/08/21 06:31:40;;;;;;;;;9.25;7.50;;;;;22.54;48.39;101092.47;5059095;28;45403;-49
2021/08/21 06:34:05;;;;;;;;;8.00;8.00;;;;;22.48;48.55;101087.56;5059108;28;45488;-49
2021/08/21 06:36:30;;;;;;;;;8.00;7.00;;;;;22.42;48.68;101094.06;5059108;28;45276;-49
2021/08/21 06:38:56;;;;;;;;;8.50;6.75;;;;;22.36;48.53;101089.09;5058761;28;45279;-47
2021/08/21 06:41:21;;;;;;;;;13.25;11.25;;;;;22.31;48.83;101089.38;5058787;28;45291;-55
2021/08/21 06:43:46;;;;;;;;;6.75;6.00;;;;;22.28;49.01;101086.06;5058940;28;45193;-51
2021/08/21 06:46:12;;;;;;;;;8.75;8.75;;;;;22.22;49.20;101082.81;5059365;28;45191;-48
2021/08/21 06:48:37;;;;;;;;;7.00;4.00;;;;;22.20;49.08;101079.47;5058659;28;45354;-48
2021/08/21 06:51:02;;;;;;;;;9.00;7.00;;;;;22.18;49.37;101081.31;5058388;28;45238;-52
2021/08/21 06:53:30;;;;;;;;;8.00;8.00;;;;;22.16;49.42;101088.47;5057807;28;45311;-51
2021/08/21 06:55:55;;;;;;;;;6.75;6.25;;;;;22.14;49.45;101082.44;5058734;28;45413;-50
2021/08/21 06:58:21;;;;;;;;;8.25;7.00;;;;;22.13;49.60;101072.81;5058436;28;46551;-52
2021/08/21 07:00:46;;;;;;;;;8.00;8.00;;;;;22.13;49.37;101072.81;5058372;28;45375;-49
2021/08/21 07:03:12;;;;;;;;;10.75;9.50;;;;;22.14;49.53;101069.22;5058835;28;45411;-47
2021/08/21 07:05:37;;;;;;;;;9.00;6.75;;;;;22.14;49.55;101071.03;5058656;28;45320;-47
2021/08/21 07:08:03;;;;;;;;;6.00;6.00;;;;;22.14;49.75;101074.50;5058254;28;45425;-49
2021/08/21 07:10:28;;;;;;;;;7.50;7.50;;;;;22.14;49.82;101071.03;5058330;28;45332;-49
2021/08/21 07:12:53;;;;;;;;;6.00;6.00;;;;;22.14;49.80;101074.50;5058318;28;45359;-49
2021/08/21 07:15:19;;;;;;;;;10.00;7.50;;;;;22.14;49.66;101074.50;5058663;28;45442;-50
2021/08/21 07:17:44;;;;;;;;;12.00;10.75;;;;;22.16;49.76;101079.72;5058443;28;45543;-52
2021/08/21 07:20:10;;;;;;;;;8.00;7.00;;;;;22.15;49.93;101084.13;5058122;28;45336;-51
2021/08/21 07:22:36;;;;;;;;;13.00;9.75;;;;;22.16;50.00;101085.00;5058184;28;45225;-48
2021/08/21 07:25:02;;;;;;;;;10.75;8.00;;;;;22.17;50.07;101087.53;5058400;28;45211;-48
2021/08/21 07:27:27;;;;;;;;;10.75;6.25;;;;;22.18;50.10;101081.31;5057945;28;46398;-46
2021/08/21 07:29:52;;;;;;;;;7.25;7.25;;;;;22.19;49.93;101090.94;5058070;28;45297;-47
2021/08/21 07:32:18;;;;;;;;;7.50;7.50;;;;;22.18;49.94;101091.88;5058154;28;45233;-47
2021/08/21 07:34:43;;;;;;;;;7.50;7.00;;;;;22.19;50.10;101088.31;5058451;28;45208;-48
2021/08/21 07:37:08;;;;;;;;;9.25;8.25;;;;;22.20;50.02;101095.28;5057642;28;45263;-47
2021/08/21 07:39:34;;;;;;;;;11.00;8.75;;;;;22.21;49.86;101096.97;5057700;28;45590;-47
2021/08/21 07:42:00;;;;;;;;;7.75;7.75;;;;;22.21;50.11;101096.97;5057983;28;45194;-49
2021/08/21 07:44:25;;;;;;;;;9.25;9.00;;;;;22.24;50.25;101088.88;5057867;28;45299;-47
2021/08/21 07:46:50;;;;;;;;;8.50;7.75;;;;;22.24;50.23;101088.88;5057699;28;45588;-47
2021/08/21 07:49:16;;;;;;;;;8.00;7.00;;;;;22.31;50.40;101096.44;5057979;28;45375;-47
2021/08/21 07:51:42;;;;;;;;;8.75;8.75;;;;;22.38;50.09;101087.22;5057664;28;45396;-46
2021/08/21 07:54:07;;;;;;;;;6.00;6.00;;;;;22.45;50.17;101085.94;5057056;28;45961;-46
2021/08/21 07:56:32;;;;;;;;;5.75;4.75;;;;;22.50;50.28;101083.88;5057763;28;45375;-51
2021/08/21 07:58:58;;;;;;;;;10.75;7.50;;;;;22.59;49.82;101078.97;5057378;28;45422;-45
2021/08/21 08:01:23;;;;;;;;;9.25;6.75;;;;;22.65;49.74;101083.91;5057591;28;45382;-45
2021/08/21 08:03:49;;;;;;;;;9.00;9.00;;;;;22.71;49.92;101083.53;5057442;28;45398;-45
2021/08/21 08:06:14;;;;;;;;;6.50;5.00;;;;;22.75;49.81;101076.25;5056379;28;47315;-45
2021/08/21 08:08:39;;;;;;;;;8.25;8.00;;;;;22.79;49.51;101086.53;5057428;28;45442;-48
2021/08/21 08:11:06;;;;;;;;;7.25;7.25;;;;;22.82;49.26;101086.34;5057472;28;45396;-49
2021/08/21 08:13:31;;;;;;;;;6.25;6.25;;;;;22.89;49.39;101091.25;5056316;28;45246;-45
2021/08/21 08:15:57;;;;;;;;;9.00;7.00;;;;;22.91;49.23;101089.38;5057320;28;45481;-46
2021/08/21 08:18:22;;;;;;;;;8.00;7.00;;;;;22.92;49.22;101086.66;5039262;28;45640;-49
2021/08/21 08:20:47;;;;;;;;;7.25;6.75;;;;;22.98;49.17;101086.25;5057673;28;45315;-51
2021/08/21 08:23:13;;;;;;;;;7.50;7.25;;;;;23.02;49.16;101086.91;5057638;28;45486;-51
2021/08/21 08:25:38;;;;;;;;;6.50;6.25;;;;;23.05;48.80;101081.44;5057128;28;46217;-51
2021/08/21 08:28:04;;;;;;;;;7.00;6.00;;;;;23.08;49.07;101081.25;5057304;28;45179;-45
2021/08/21 08:30:30;;;;;;;;;9.25;7.50;;;;;23.10;48.96;101066.13;5057283;28;45211;-45
2021/08/21 08:32:55;;;;;;;;;9.25;7.25;;;;;23.12;48.91;101066.88;5057528;28;45252;-45
2021/08/21 08:35:21;;;;;;;;;6.50;5.25;;;;;23.16;48.79;101073.69;5056898;28;46639;-46
2021/08/21 08:37:46;;;;;;;;;7.00;6.00;;;;;23.17;48.72;101067.47;5057535;28;45439;-48
2021/08/21 08:40:12;;;;;;;;;7.50;7.50;;;;;23.21;48.67;101067.28;5057295;28;45376;-49
2021/08/21 08:42:42;;;;;;;;;8.50;6.50;;;;;23.23;48.60;101073.31;5057371;28;45418;-47
2021/08/21 08:45:09;;;;;;;;;6.50;6.25;;;;;23.26;48.73;101073.13;5056696;28;46669;-47
2021/08/21 08:47:36;;;;;;;;;8.25;8.25;;;;;23.27;48.74;101074.84;5056759;28;45402;-48
2021/08/21 08:50:04;;;;;;;;;12.00;7.25;;;;;23.29;49.04;101078.25;5056708;28;45409;-47
2021/08/21 08:52:31;;;;;;;;;10.00;8.75;;;;;23.28;48.97;101073.91;5056819;28;45557;-46
2021/08/21 08:54:56;;;;;;;;;7.00;7.00;;;;;23.29;49.09;101081.72;5056567;28;46290;-49
2021/08/21 08:57:42;;;;;;;;;6.25;6.25;;;;;23.31;48.74;101082.47;5056708;28;45286;-49
2021/08/21 09:00:11;;;;;;;;;10.00;8.25;;;;;23.30;48.85;101083.44;5056630;28;45244;-52
2021/08/21 09:02:42;;;;;;;;;8.00;7.25;;;;;23.31;49.23;101081.66;5056824;28;45339;-50
2021/08/21 09:05:13;;;;;;;;;10.00;8.75;;;;;23.31;49.06;101084.28;5056522;28;45381;-51
2021/08/21 09:07:51;;;;;;;;;7.25;7.00;;;;;23.33;49.16;101087.66;5056582;28;45800;-50
2021/08/21 09:10:25;;;;;;;;;10.00;7.00;;;;;23.32;49.03;101083.31;5056843;28;45343;-52
2021/08/21 09:13:02;;;;;;;;;10.75;8.75;;;;;23.34;49.47;101084.06;5056876;28;45400;-49
2021/08/21 09:15:29;;;;;;;;;10.75;10.75;;;;;23.35;49.11;101085.78;5055264;28;46550;-51
2021/08/21 09:17:58;;;;;;;;;9.00;9.00;;;;;23.35;49.10;101083.13;5056302;28;45307;-48
2021/08/21 09:20:24;;;;;;;;;12.00;9.50;;;;;23.37;49.28;101081.25;5056405;28;45280;-51
2021/08/21 09:22:49;;;;;;;;;7.50;7.50;;;;;23.38;49.02;101082.06;5056798;28;45481;-49
2021/08/21 09:25:27;;;;;;;;;8.25;8.25;;;;;23.38;48.92;101082.94;5056050;28;45501;-49
2021/08/21 09:27:52;;;;;;;;;10.00;8.00;;;;;23.39;49.39;101084.66;5056320;28;45730;-50
2021/08/21 09:30:18;;;;;;;;;7.75;6.50;;;;;23.41;49.01;101093.34;5056723;28;45375;-50
2021/08/21 09:32:44;;;;;;;;;7.25;7.25;;;;;23.41;49.25;101090.69;5056644;28;45352;-49
2021/08/21 09:35:12;;;;;;;;;5.50;5.50;;;;;23.42;49.11;101088.88;5056218;28;46587;-47
2021/08/21 09:37:49;;;;;;;;;7.50;7.50;;;;;23.43;49.19;101087.94;5056123;28;45363;-48
2021/08/21 09:40:36;;;;;;;;;9.75;8.75;;;;;23.43;49.45;101078.19;5056271;28;45344;-46
2021/08/21 09:43:04;;;;;;;;;7.75;7.00;;;;;23.44;49.10;101071.97;5056245;28;45245;-50
2021/08/21 09:45:30;;;;;;;;;6.50;6.50;;;;;23.45;49.22;101067.53;5056007;28;46168;-47
2021/08/21 09:48:00;;;;;;;;;8.00;7.00;;;;;23.46;49.34;101069.22;5056072;28;45406;-47
2021/08/21 09:50:30;;;;;;;;;10.00;6.50;;;;;23.47;49.13;101065.66;5055934;28;45305;-46
2021/08/21 09:53:00;;;;;;;;;11.50;9.00;;;;;23.49;48.90;101057.59;5056176;28;45274;-48
2021/08/21 09:55:28;;;;;;;;;9.50;9.00;;;;;23.50;49.65;101065.41;5055693;28;46414;-46
2021/08/21 09:58:05;;;;;;;;;10.00;9.00;;;;;23.52;49.34;101060.06;5055881;28;45756;-46
2021/08/21 10:00:32;;;;;;;;;8.50;7.50;;;;;23.55;49.32;101057.19;5056006;28;45315;-49
2021/08/21 10:02:58;;;;;;;;;9.25;9.00;;;;;23.55;49.29;101055.41;5056118;28;45505;-47
2021/08/21 10:05:25;;;;;;;;;10.00;9.25;;;;;23.56;49.58;101053.59;5054339;28;46605;-49
2021/08/21 10:07:57;;;;;;;;;4.50;4.50;;;;;23.57;49.54;101052.66;5056059;28;45268;-47
2021/08/21 10:10:28;;;;;;;;;10.00;8.00;;;;;23.59;49.73;101056.06;5056172;28;45398;-49
2021/08/21 10:12:56;;;;;;;;;9.00;9.00;;;;;23.61;49.85;101051.50;5056347;28;45272;-48
2021/08/21 10:15:22;;;;;;;;;12.25;8.50;;;;;23.62;49.82;101053.22;5055764;28;46360;-47
2021/08/21 10:17:48;;;;;;;;;10.25;8.00;;;;;23.63;49.43;101058.41;5055566;28;45468;-47
2021/08/21 10:20:14;;;;;;;;;10.50;9.00;;;;;23.65;49.39;101058.28;5055774;28;45452;-50
2021/08/21 10:22:40;;;;;;;;;9.25;9.25;;;;;23.66;49.56;101059.16;5055834;28;45564;-47
2021/08/21 10:25:09;;;;;;;;;9.00;9.00;;;;;23.67;49.74;101064.31;5055623;28;45392;-50
2021/08/21 10:28:15;;;;;;;;;7.75;7.75;;;;;23.68;49.46;101060.75;5057642;28;45905;-52
2021/08/21 10:30:51;;;;;;;;;7.25;7.25;;;;;23.68;49.54;101054.63;4997124;28;45403;-53
2021/08/21 10:33:17;;;;;;;;;8.25;8.25;;;;;23.68;49.30;101055.44;4997265;28;45412;-45
2021/08/21 10:35:50;;;;;;;;;8.50;8.25;;;;;23.72;49.37;101056.09;5030774;28;47107;-48
2021/08/21 10:38:33;;;;;;;;;11.00;7.00;;;;;23.72;49.07;101049.00;5058863;28;45293;-45
2021/08/21 10:41:00;;;;;;;;;7.75;7.75;;;;;23.74;49.30;101055.06;5040961;28;45272;-47
2021/08/21 10:43:51;;;;;;;;;9.50;9.50;;;;;23.75;49.28;101054.13;5059342;28;45206;-45
2021/08/21 10:46:28;;;;;;;;;10.00;7.50;;;;;23.77;49.29;101046.91;5058736;28;46484;-46
2021/08/21 10:48:54;;;;;;;;;8.50;8.50;;;;;23.80;49.48;101050.28;5058881;28;45241;-46
2021/08/21 10:51:35;;;;;;;;;10.00;8.75;;;;;23.81;49.19;101046.69;5058871;28;45304;-46
2021/08/21 10:54:26;;;;;;;;;10.25;8.25;;;;;23.82;49.40;101049.22;5058868;28;45442;-45
2021/08/21 10:56:56;;;;;;;;;9.00;7.25;;;;;23.83;49.08;101055.41;5058718;28;46570;-45
2021/08/21 10:59:40;;;;;;;;;9.25;8.75;;;;;23.85;49.07;101048.22;5058262;28;45793;-45
2021/08/21 11:02:31;;;;;;;;;8.75;8.75;;;;;23.87;49.52;101046.28;5058616;28;45383;-48
2021/08/21 11:04:58;;;;;;;;;8.50;8.50;;;;;23.88;49.57;101037.41;5059080;28;45410;-50
2021/08/21 11:07:29;;;;;;;;;10.50;9.00;;;;;23.89;49.42;101047.91;5058543;28;46427;-46
2021/08/21 11:10:23;;;;;;;;;10.00;9.00;;;;;23.92;49.12;101044.19;5058746;28;45321;-45
2021/08/21 11:12:52;;;;;;;;;9.00;9.00;;;;;23.92;49.86;101038.91;5058626;28;45237;-48
2021/08/21 11:15:24;;;;;;;;;9.00;9.00;;;;;23.94;48.95;101050.25;5058507;28;45396;-47
2021/08/21 11:17:50;;;;;;;;;9.75;8.25;;;;;23.96;49.50;101051.03;5058023;28;46340;-46
2021/08/21 11:20:26;;;;;;;;;8.25;8.25;;;;;23.98;49.18;101046.44;5058075;28;45406;-48
2021/08/21 11:23:07;;;;;;;;;9.75;8.00;;;;;23.99;49.51;101039.38;5058380;28;45377;-47
2021/08/21 11:25:39;;;;;;;;;9.00;8.00;;;;;23.99;49.95;101050.78;5057806;28;45309;-48